createdAt,value
2018-02-19T00:00:03.570Z,1002.84
2018-02-19T00:01:03.596Z,1002.84
2018-02-19T00:02:03.621Z,1002.83
2018-02-19T00:03:03.650Z,1002.77
2018-02-19T00:04:03.672Z,1002.82
2018-02-19T00:05:03.698Z,1002.78
2018-02-19T00:06:03.724Z,1002.73
2018-02-19T00:07:03.748Z,1002.71
2018-02-19T00:08:03.779Z,1002.73
2018-02-19T00:09:03.800Z,1002.71
2018-02-19T00:10:03.826Z,1002.71
2018-02-19T00:11:03.851Z,1002.69
2018-02-19T00:12:03.877Z,1002.68
2018-02-19T00:13:03.903Z,1002.75
2018-02-19T00:14:03.927Z,1002.75
2018-02-19T00:15:03.953Z,1002.68
2018-02-19T00:16:03.976Z,1002.75
2018-02-19T00:17:04.002Z,1002.73
2018-02-19T00:18:04.029Z,1002.73
2018-02-19T00:19:04.078Z,1002.72
2018-02-19T00:20:04.079Z,1002.70
2018-02-19T00:21:04.105Z,1002.68
2018-02-19T00:22:04.129Z,1002.71
2018-02-19T00:23:04.156Z,1002.65
2018-02-19T00:24:04.180Z,1002.61
2018-02-19T00:25:04.205Z,1002.61
2018-02-19T00:26:04.230Z,1002.67
2018-02-19T00:27:04.257Z,1002.64
2018-02-19T00:28:04.281Z,1002.68
2018-02-19T00:29:04.308Z,1002.62
2018-02-19T00:30:04.332Z,1002.63
2018-02-19T00:31:04.359Z,1002.61
2018-02-19T00:32:04.384Z,1002.58
2018-02-19T00:33:04.409Z,1002.59
2018-02-19T00:34:04.435Z,1002.54
2018-02-19T00:35:04.461Z,1002.54
2018-02-19T00:36:04.485Z,1002.62
2018-02-19T00:37:04.513Z,1002.61
2018-02-19T00:38:04.535Z,1002.61
2018-02-19T00:39:04.560Z,1002.61
2018-02-19T00:40:04.589Z,1002.61
2018-02-19T00:41:04.611Z,1002.66
2018-02-19T00:42:04.636Z,1002.59
2018-02-19T00:43:04.663Z,1002.59
2018-02-19T00:44:04.688Z,1002.59
2018-02-19T00:45:04.713Z,1002.60
2018-02-19T00:46:04.738Z,1002.55
2018-02-19T00:47:04.762Z,1002.55
2018-02-19T00:48:04.788Z,1002.56
2018-02-19T00:49:04.815Z,1002.56
2018-02-19T00:50:04.839Z,1002.52
2018-02-19T00:51:04.865Z,1002.52
2018-02-19T00:52:04.889Z,1002.53
2018-02-19T00:53:04.915Z,1002.48
2018-02-19T00:54:04.941Z,1002.46
2018-02-19T00:55:04.968Z,1002.50
2018-02-19T00:56:04.991Z,1002.50
2018-02-19T00:57:05.017Z,1002.44
2018-02-19T00:58:05.041Z,1002.44
2018-02-19T00:59:05.068Z,1002.45
2018-02-19T01:00:05.094Z,1002.39
2018-02-19T01:01:05.317Z,1002.44
2018-02-19T01:02:05.144Z,1002.47
2018-02-19T01:03:05.170Z,1002.41
2018-02-19T01:04:05.194Z,1002.39
2018-02-19T01:05:05.219Z,1002.40
2018-02-19T01:06:05.251Z,1002.36
2018-02-19T01:07:05.271Z,1002.34
2018-02-19T01:08:05.296Z,1002.34
2018-02-19T01:09:05.322Z,1002.32
2018-02-19T01:10:05.349Z,1002.27
2018-02-19T01:11:05.373Z,1002.29
2018-02-19T01:12:05.398Z,1002.24
2018-02-19T01:13:05.424Z,1002.27
2018-02-19T01:14:05.450Z,1002.18
2018-02-19T01:15:05.476Z,1002.21
2018-02-19T01:16:05.500Z,1002.19
2018-02-19T01:17:05.526Z,1002.14
2018-02-19T01:18:05.552Z,1002.15
2018-02-19T01:19:05.577Z,1002.11
2018-02-19T01:20:05.602Z,1002.09
2018-02-19T01:21:05.628Z,1002.09
2018-02-19T01:22:05.654Z,1002.09
2018-02-19T01:23:05.679Z,1002.06
2018-02-19T01:24:05.704Z,1002.06
2018-02-19T01:25:05.730Z,1002.07
2018-02-19T01:26:05.755Z,1002.09
2018-02-19T01:27:05.781Z,1002.10
2018-02-19T01:28:05.806Z,1002.08
2018-02-19T01:29:05.830Z,1002.09
2018-02-19T01:30:05.856Z,1002.09
2018-02-19T01:31:05.883Z,1002.09
2018-02-19T01:32:05.908Z,1002.06
2018-02-19T01:33:05.932Z,1002.07
2018-02-19T01:34:05.960Z,1002.12
2018-02-19T01:35:05.986Z,1002.06
2018-02-19T01:36:06.010Z,1002.05
2018-02-19T01:37:06.036Z,1002.07
2018-02-19T01:38:06.061Z,1002.07
2018-02-19T01:39:06.087Z,1002.04
2018-02-19T01:40:06.111Z,1002.09
2018-02-19T01:41:06.137Z,1002.10
2018-02-19T01:42:06.161Z,1002.03
2018-02-19T01:43:06.194Z,1002.01
2018-02-19T01:44:06.213Z,1002.01
2018-02-19T01:45:06.239Z,1001.99
2018-02-19T01:46:06.264Z,1002.00
2018-02-19T01:47:06.291Z,1002.02
2018-02-19T01:48:06.315Z,1002.00
2018-02-19T01:49:06.342Z,1001.95
2018-02-19T01:50:06.368Z,1001.95
2018-02-19T01:51:06.392Z,1001.93
2018-02-19T01:52:06.418Z,1001.90
2018-02-19T01:53:06.444Z,1001.87
2018-02-19T01:54:06.470Z,1001.84
2018-02-19T01:55:06.494Z,1001.88
2018-02-19T01:56:06.521Z,1001.89
2018-02-19T01:57:06.545Z,1001.83
2018-02-19T01:58:06.573Z,1001.82
2018-02-19T01:59:06.598Z,1001.78
2018-02-19T02:00:06.625Z,1001.81
2018-02-19T02:01:06.650Z,1001.76
2018-02-19T02:02:06.678Z,1001.77
2018-02-19T02:03:06.707Z,1001.69
2018-02-19T02:04:06.728Z,1001.78
2018-02-19T02:05:06.752Z,1001.68
2018-02-19T02:06:06.778Z,1001.68
2018-02-19T02:07:06.804Z,1001.72
2018-02-19T02:08:06.830Z,1001.71
2018-02-19T02:09:06.855Z,1001.71
2018-02-19T02:10:06.882Z,1001.68
2018-02-19T02:11:06.908Z,1001.68
2018-02-19T02:12:06.932Z,1001.63
2018-02-19T02:13:06.959Z,1001.63
2018-02-19T02:14:06.985Z,1001.54
2018-02-19T02:15:07.011Z,1001.56
2018-02-19T02:16:07.036Z,1001.52
2018-02-19T02:17:07.064Z,1001.47
2018-02-19T02:18:07.089Z,1001.51
2018-02-19T02:19:07.113Z,1001.52
2018-02-19T02:20:07.140Z,1001.53
2018-02-19T02:21:07.165Z,1001.50
2018-02-19T02:22:07.191Z,1001.52
2018-02-19T02:23:07.217Z,1001.53
2018-02-19T02:24:07.243Z,1001.53
2018-02-19T02:25:07.267Z,1001.48
2018-02-19T02:26:07.295Z,1001.50
2018-02-19T02:27:07.321Z,1001.47
2018-02-19T02:28:07.351Z,1001.49
2018-02-19T02:29:07.425Z,1001.48
2018-02-19T02:30:07.406Z,1001.47
2018-02-19T02:31:07.426Z,1001.47
2018-02-19T02:32:07.452Z,1001.45
2018-02-19T02:33:07.475Z,1001.42
2018-02-19T02:34:07.507Z,1001.43
2018-02-19T02:35:07.527Z,1001.44
2018-02-19T02:36:07.555Z,1001.40
2018-02-19T02:37:07.578Z,1001.44
2018-02-19T02:38:07.613Z,1001.42
2018-02-19T02:39:07.637Z,1001.44
2018-02-19T02:40:07.657Z,1001.42
2018-02-19T02:41:07.682Z,1001.43
2018-02-19T02:42:07.714Z,1001.36
2018-02-19T02:43:07.734Z,1001.39
2018-02-19T02:44:07.765Z,1001.36
2018-02-19T02:45:07.785Z,1001.33
2018-02-19T02:46:07.811Z,1001.33
2018-02-19T02:47:07.837Z,1001.33
2018-02-19T02:48:07.863Z,1001.35
2018-02-19T02:49:07.897Z,1001.34
2018-02-19T02:50:07.914Z,1001.37
2018-02-19T02:51:07.942Z,1001.33
2018-02-19T02:52:07.966Z,1001.38
2018-02-19T02:53:07.992Z,1001.32
2018-02-19T02:54:08.019Z,1001.37
2018-02-19T02:55:08.044Z,1001.38
2018-02-19T02:56:08.071Z,1001.33
2018-02-19T02:57:08.097Z,1001.35
2018-02-19T02:58:08.120Z,1001.29
2018-02-19T02:59:08.148Z,1001.33
2018-02-19T03:00:08.173Z,1001.36
2018-02-19T03:01:08.198Z,1001.35
2018-02-19T03:02:08.225Z,1001.37
2018-02-19T03:03:08.250Z,1001.38
2018-02-19T03:04:08.275Z,1001.39
2018-02-19T03:05:08.303Z,1001.36
2018-02-19T03:06:08.331Z,1001.30
2018-02-19T03:07:08.354Z,1001.25
2018-02-19T03:08:08.380Z,1001.27
2018-02-19T03:09:08.406Z,1001.27
2018-02-19T03:10:08.432Z,1001.28
2018-02-19T03:11:08.459Z,1001.23
2018-02-19T03:12:08.483Z,1001.25
2018-02-19T03:13:08.511Z,1001.24
2018-02-19T03:14:08.536Z,1001.20
2018-02-19T03:15:08.562Z,1001.21
2018-02-19T03:16:08.586Z,1001.20
2018-02-19T03:17:08.613Z,1001.21
2018-02-19T03:18:08.638Z,1001.23
2018-02-19T03:19:08.666Z,1001.18
2018-02-19T03:20:08.691Z,1001.21
2018-02-19T03:21:08.717Z,1001.23
2018-02-19T03:22:08.743Z,1001.17
2018-02-19T03:23:08.768Z,1001.21
2018-02-19T03:24:08.793Z,1001.23
2018-02-19T03:25:08.859Z,1001.25
2018-02-19T03:26:08.848Z,1001.28
2018-02-19T03:27:08.874Z,1001.24
2018-02-19T03:28:08.898Z,1001.24
2018-02-19T03:29:08.924Z,1001.21
2018-02-19T03:30:08.951Z,1001.21
2018-02-19T03:31:08.977Z,1001.20
2018-02-19T03:32:09.001Z,1001.29
2018-02-19T03:33:09.028Z,1001.27
2018-02-19T03:34:09.053Z,1001.25
2018-02-19T03:35:09.078Z,1001.28
2018-02-19T03:36:09.104Z,1001.25
2018-02-19T03:37:09.131Z,1001.23
2018-02-19T03:38:09.157Z,1001.24
2018-02-19T03:39:09.183Z,1001.23
2018-02-19T03:40:09.217Z,1001.24
2018-02-19T03:41:09.235Z,1001.23
2018-02-19T03:42:09.261Z,1001.27
2018-02-19T03:43:09.287Z,1001.29
2018-02-19T03:44:09.316Z,1001.23
2018-02-19T03:45:09.404Z,1001.22
2018-02-19T03:46:09.364Z,1001.23
2018-02-19T03:47:09.390Z,1001.20
2018-02-19T03:48:09.415Z,1001.22
2018-02-19T03:49:09.441Z,1001.26
2018-02-19T03:50:09.467Z,1001.25
2018-02-19T03:51:09.494Z,1001.23
2018-02-19T03:52:09.518Z,1001.17
2018-02-19T03:53:09.544Z,1001.20
2018-02-19T03:54:09.575Z,1001.22
2018-02-19T03:55:09.597Z,1001.15
2018-02-19T03:56:09.622Z,1001.17
2018-02-19T03:57:09.653Z,1001.16
2018-02-19T03:58:09.675Z,1001.13
2018-02-19T03:59:09.701Z,1001.11
2018-02-19T04:00:09.725Z,1001.14
2018-02-19T04:01:09.750Z,1001.10
2018-02-19T04:02:09.777Z,1001.09
2018-02-19T04:03:09.803Z,1001.07
2018-02-19T04:04:09.828Z,1000.98
2018-02-19T04:05:09.855Z,1001.05
2018-02-19T04:06:09.883Z,1001.00
2018-02-19T04:07:09.907Z,1001.00
2018-02-19T04:08:09.939Z,1000.99
2018-02-19T04:09:09.958Z,1001.03
2018-02-19T04:10:09.985Z,1001.02
2018-02-19T04:11:10.010Z,1000.99
2018-02-19T04:12:10.035Z,1001.00
2018-02-19T04:13:10.061Z,1001.00
2018-02-19T04:14:10.087Z,1001.03
2018-02-19T04:15:10.113Z,1001.00
2018-02-19T04:16:10.140Z,1001.01
2018-02-19T04:17:10.162Z,1000.95
2018-02-19T04:18:10.189Z,1000.96
2018-02-19T04:19:10.216Z,1000.92
2018-02-19T04:20:10.241Z,1000.93
2018-02-19T04:21:10.267Z,1000.95
2018-02-19T04:22:10.299Z,1000.95
2018-02-19T04:23:10.319Z,1000.89
2018-02-19T04:24:10.344Z,1000.90
2018-02-19T04:25:10.371Z,1000.86
2018-02-19T04:26:10.401Z,1000.92
2018-02-19T04:27:10.423Z,1000.89
2018-02-19T04:28:10.450Z,1000.90
2018-02-19T04:29:10.477Z,1000.90
2018-02-19T04:30:10.500Z,1000.93
2018-02-19T04:31:10.526Z,1000.84
2018-02-19T04:32:10.551Z,1000.85
2018-02-19T04:33:10.576Z,1000.86
2018-02-19T04:34:10.604Z,1000.82
2018-02-19T04:35:10.631Z,1000.87
2018-02-19T04:36:10.654Z,1000.78
2018-02-19T04:37:10.680Z,1000.83
2018-02-19T04:38:10.706Z,1000.83
2018-02-19T04:39:10.732Z,1000.80
2018-02-19T04:40:10.757Z,1000.79
2018-02-19T04:41:10.784Z,1000.78
2018-02-19T04:42:10.856Z,1000.75
2018-02-19T04:43:10.835Z,1000.76
2018-02-19T04:44:10.860Z,1000.73
2018-02-19T04:45:10.886Z,1000.73
2018-02-19T04:46:10.912Z,1000.72
2018-02-19T04:47:10.939Z,1000.75
2018-02-19T04:48:10.964Z,1000.71
2018-02-19T04:49:10.990Z,1000.71
2018-02-19T04:50:11.017Z,1000.69
2018-02-19T04:51:11.043Z,1000.70
2018-02-19T04:52:11.068Z,1000.65
2018-02-19T04:53:11.094Z,1000.65
2018-02-19T04:54:11.119Z,1000.61
2018-02-19T04:55:11.146Z,1000.60
2018-02-19T04:56:11.171Z,1000.60
2018-02-19T04:57:11.196Z,1000.60
2018-02-19T04:58:11.222Z,1000.62
2018-02-19T04:59:11.248Z,1000.60
2018-02-19T05:00:11.274Z,1000.61
2018-02-19T05:01:11.300Z,1000.57
2018-02-19T05:02:11.326Z,1000.61
2018-02-19T05:03:11.352Z,1000.59
2018-02-19T05:04:11.376Z,1000.61
2018-02-19T05:05:11.404Z,1000.60
2018-02-19T05:06:11.429Z,1000.59
2018-02-19T05:07:11.456Z,1000.60
2018-02-19T05:08:11.480Z,1000.59
2018-02-19T05:09:11.506Z,1000.61
2018-02-19T05:10:11.531Z,1000.59
2018-02-19T05:11:11.558Z,1000.58
2018-02-19T05:12:11.583Z,1000.58
2018-02-19T05:13:11.609Z,1000.61
2018-02-19T05:14:11.635Z,1000.59
2018-02-19T05:15:11.661Z,1000.63
2018-02-19T05:16:11.686Z,1000.63
2018-02-19T05:17:11.713Z,1000.65
2018-02-19T05:18:11.738Z,1000.61
2018-02-19T05:19:11.764Z,1000.64
2018-02-19T05:20:11.789Z,1000.61
2018-02-19T05:21:11.816Z,1000.59
2018-02-19T05:22:11.841Z,1000.58
2018-02-19T05:23:11.866Z,1000.60
2018-02-19T05:24:11.892Z,1000.56
2018-02-19T05:25:11.918Z,1000.58
2018-02-19T05:26:11.944Z,1000.57
2018-02-19T05:27:11.970Z,1000.55
2018-02-19T05:28:11.995Z,1000.60
2018-02-19T05:29:12.021Z,1000.59
2018-02-19T05:30:12.048Z,1000.61
2018-02-19T05:31:12.074Z,1000.62
2018-02-19T05:32:12.098Z,1000.64
2018-02-19T05:33:12.125Z,1000.66
2018-02-19T05:34:12.151Z,1000.62
2018-02-19T05:35:12.177Z,1000.63
2018-02-19T05:36:12.205Z,1000.58
2018-02-19T05:37:12.230Z,1000.61
2018-02-19T05:38:12.257Z,1000.60
2018-02-19T05:39:12.281Z,1000.58
2018-02-19T05:40:12.304Z,1000.61
2018-02-19T05:41:12.330Z,1000.60
2018-02-19T05:42:12.358Z,1000.62
2018-02-19T05:43:12.382Z,1000.69
2018-02-19T05:44:12.407Z,1000.63
2018-02-19T05:45:12.434Z,1000.68
2018-02-19T05:46:12.460Z,1000.65
2018-02-19T05:47:12.487Z,1000.70
2018-02-19T05:48:12.511Z,1000.69
2018-02-19T05:49:12.537Z,1000.69
2018-02-19T05:50:12.563Z,1000.67
2018-02-19T05:51:12.589Z,1000.66
2018-02-19T05:52:12.614Z,1000.67
2018-02-19T05:53:12.639Z,1000.64
2018-02-19T05:54:12.666Z,1000.65
2018-02-19T05:55:12.691Z,1000.66
2018-02-19T05:56:12.717Z,1000.72
2018-02-19T05:57:12.745Z,1000.69
2018-02-19T05:58:12.769Z,1000.67
2018-02-19T05:59:12.795Z,1000.71
2018-02-19T06:00:12.820Z,1000.69
2018-02-19T06:01:12.846Z,1000.67
2018-02-19T06:02:12.872Z,1000.66
2018-02-19T06:03:12.898Z,1000.67
2018-02-19T06:04:12.923Z,1000.69
2018-02-19T06:05:12.949Z,1000.62
2018-02-19T06:06:12.975Z,1000.70
2018-02-19T06:07:13.000Z,1000.70
2018-02-19T06:08:13.025Z,1000.65
2018-02-19T06:09:13.052Z,1000.68
2018-02-19T06:10:13.078Z,1000.63
2018-02-19T06:11:13.105Z,1000.68
2018-02-19T06:12:13.129Z,1000.73
2018-02-19T06:13:13.156Z,1000.65
2018-02-19T06:14:13.182Z,1000.69
2018-02-19T06:15:13.207Z,1000.68
2018-02-19T06:16:13.233Z,1000.62
2018-02-19T06:17:13.260Z,1000.64
2018-02-19T06:18:13.285Z,1000.66
2018-02-19T06:19:13.311Z,1000.61
2018-02-19T06:20:13.335Z,1000.65
2018-02-19T06:21:13.361Z,1000.64
2018-02-19T06:22:13.386Z,1000.60
2018-02-19T06:23:13.413Z,1000.63
2018-02-19T06:24:13.438Z,1000.65
2018-02-19T06:25:13.464Z,1000.61
2018-02-19T06:26:13.490Z,1000.65
2018-02-19T06:27:13.517Z,1000.64
2018-02-19T06:28:13.541Z,1000.66
2018-02-19T06:29:13.567Z,1000.68
2018-02-19T06:30:13.594Z,1000.64
2018-02-19T06:31:13.618Z,1000.67
2018-02-19T06:32:13.643Z,1000.68
2018-02-19T06:33:13.670Z,1000.68
2018-02-19T06:34:13.696Z,1000.71
2018-02-19T06:35:13.722Z,1000.74
2018-02-19T06:36:13.748Z,1000.77
2018-02-19T06:37:13.773Z,1000.78
2018-02-19T06:38:13.799Z,1000.78
2018-02-19T06:39:13.825Z,1000.73
2018-02-19T06:40:13.850Z,1000.74
2018-02-19T06:41:13.877Z,1000.77
2018-02-19T06:42:13.902Z,1000.75
2018-02-19T06:43:13.929Z,1000.71
2018-02-19T06:44:13.952Z,1000.72
2018-02-19T06:45:13.980Z,1000.69
2018-02-19T06:46:14.005Z,1000.73
2018-02-19T06:47:14.029Z,1000.68
2018-02-19T06:48:14.055Z,1000.72
2018-02-19T06:49:14.081Z,1000.73
2018-02-19T06:50:14.108Z,1000.70
2018-02-19T06:51:14.133Z,1000.73
2018-02-19T06:52:14.158Z,1000.67
2018-02-19T06:53:14.184Z,1000.70
2018-02-19T06:54:14.212Z,1000.68
2018-02-19T06:55:14.235Z,1000.68
2018-02-19T06:56:14.259Z,1000.67
2018-02-19T06:57:14.285Z,1000.68
2018-02-19T06:58:14.311Z,1000.66
2018-02-19T06:59:14.340Z,1000.69
2018-02-19T07:00:14.397Z,1000.62
2018-02-19T07:01:14.387Z,1000.64
2018-02-19T07:02:14.414Z,1000.65
2018-02-19T07:03:14.440Z,1000.66
2018-02-19T07:04:14.464Z,1000.65
2018-02-19T07:05:14.491Z,1000.70
2018-02-19T07:06:14.515Z,1000.64
2018-02-19T07:07:14.540Z,1000.63
2018-02-19T07:08:14.566Z,1000.65
2018-02-19T07:09:14.591Z,1000.63
2018-02-19T07:10:14.618Z,1000.66
2018-02-19T07:11:14.643Z,1000.65
2018-02-19T07:12:14.669Z,1000.65
2018-02-19T07:13:14.695Z,1000.66
2018-02-19T07:14:14.718Z,1000.62
2018-02-19T07:15:14.745Z,1000.65
2018-02-19T07:16:14.770Z,1000.61
2018-02-19T07:17:14.796Z,1000.62
2018-02-19T07:18:14.821Z,1000.62
2018-02-19T07:19:14.847Z,1000.59
2018-02-19T07:20:14.870Z,1000.53
2018-02-19T07:21:14.896Z,1000.61
2018-02-19T07:22:14.921Z,1000.66
2018-02-19T07:23:14.952Z,1000.58
2018-02-19T07:24:14.972Z,1000.61
2018-02-19T07:25:15.000Z,1000.62
2018-02-19T07:26:15.026Z,1000.61
2018-02-19T07:27:15.051Z,1000.68
2018-02-19T07:28:15.076Z,1000.63
2018-02-19T07:29:15.102Z,1000.65
2018-02-19T07:30:15.130Z,1000.59
2018-02-19T07:31:15.157Z,1000.55
2018-02-19T07:32:15.178Z,1000.60
2018-02-19T07:33:15.204Z,1000.58
2018-02-19T07:34:15.231Z,1000.57
2018-02-19T07:35:15.256Z,1000.63
2018-02-19T07:36:15.281Z,1000.52
2018-02-19T07:37:15.308Z,1000.52
2018-02-19T07:38:15.333Z,1000.55
2018-02-19T07:39:15.360Z,1000.52
2018-02-19T07:40:15.385Z,1000.52
2018-02-19T07:41:15.411Z,1000.50
2018-02-19T07:42:15.437Z,1000.51
2018-02-19T07:43:15.462Z,1000.49
2018-02-19T07:44:15.496Z,1000.49
2018-02-19T07:45:15.514Z,1000.49
2018-02-19T07:46:15.539Z,1000.48
2018-02-19T07:47:15.565Z,1000.47
2018-02-19T07:48:15.591Z,1000.43
2018-02-19T07:49:15.617Z,1000.50
2018-02-19T07:50:15.646Z,1000.44
2018-02-19T07:51:15.669Z,1000.46
2018-02-19T07:52:15.694Z,1000.45
2018-02-19T07:53:15.722Z,1000.48
2018-02-19T07:54:15.747Z,1000.50
2018-02-19T07:55:15.773Z,1000.48
2018-02-19T07:56:15.804Z,1000.48
2018-02-19T07:57:15.825Z,1000.50
2018-02-19T07:58:15.851Z,1000.48
2018-02-19T07:59:15.877Z,1000.50
2018-02-19T08:00:15.901Z,1000.49
2018-02-19T08:01:15.928Z,1000.50
2018-02-19T08:02:15.954Z,1000.47
2018-02-19T08:03:15.981Z,1000.45
2018-02-19T08:04:16.006Z,1000.44
2018-02-19T08:05:16.033Z,1000.47
2018-02-19T08:06:16.069Z,1000.46
2018-02-19T08:07:16.086Z,1000.47
2018-02-19T08:08:16.111Z,1000.45
2018-02-19T08:09:16.137Z,1000.46
2018-02-19T08:10:16.164Z,1000.42
2018-02-19T08:11:16.192Z,1000.44
2018-02-19T08:12:16.218Z,1000.45
2018-02-19T08:13:16.243Z,1000.43
2018-02-19T08:14:16.269Z,1000.41
2018-02-19T08:15:16.298Z,1000.42
2018-02-19T08:16:16.320Z,1000.42
2018-02-19T08:17:16.347Z,1000.39
2018-02-19T08:18:16.377Z,1000.38
2018-02-19T08:19:16.410Z,1000.35
2018-02-19T08:20:16.425Z,1000.37
2018-02-19T08:21:16.451Z,1000.38
2018-02-19T08:22:16.478Z,1000.30
2018-02-19T08:23:16.504Z,1000.32
2018-02-19T08:24:16.531Z,1000.34
2018-02-19T08:25:16.558Z,1000.37
2018-02-19T08:26:16.584Z,1000.33
2018-02-19T08:27:16.611Z,1000.36
2018-02-19T08:28:16.636Z,1000.37
2018-02-19T08:29:16.663Z,1000.37
2018-02-19T08:30:16.689Z,1000.33
2018-02-19T08:31:16.715Z,1000.33
2018-02-19T08:32:16.743Z,1000.39
2018-02-19T08:33:16.771Z,1000.35
2018-02-19T08:34:16.794Z,1000.38
2018-02-19T08:35:16.821Z,1000.35
2018-02-19T08:36:16.849Z,1000.35
2018-02-19T08:37:16.873Z,1000.36
2018-02-19T08:38:16.900Z,1000.35
2018-02-19T08:39:16.927Z,1000.29
2018-02-19T08:40:16.953Z,1000.32
2018-02-19T08:41:16.980Z,1000.28
2018-02-19T08:42:17.006Z,1000.32
2018-02-19T08:43:17.034Z,1000.28
2018-02-19T08:44:17.058Z,1000.29
2018-02-19T08:45:17.086Z,1000.26
2018-02-19T08:46:17.113Z,1000.29
2018-02-19T08:47:17.141Z,1000.23
2018-02-19T08:48:17.165Z,1000.22
2018-02-19T08:49:17.193Z,1000.21
2018-02-19T08:50:17.218Z,1000.21
2018-02-19T08:51:17.248Z,1000.22
2018-02-19T08:52:17.272Z,1000.23
2018-02-19T08:53:17.342Z,1000.25
2018-02-19T08:54:17.326Z,1000.21
2018-02-19T08:55:17.352Z,1000.27
2018-02-19T08:56:17.378Z,1000.26
2018-02-19T08:57:17.406Z,1000.24
2018-02-19T08:58:17.433Z,1000.24
2018-02-19T08:59:17.462Z,1000.21
2018-02-19T09:00:17.486Z,1000.17
2018-02-19T09:01:17.513Z,1000.22
2018-02-19T09:02:17.541Z,1000.23
2018-02-19T09:03:17.567Z,1000.23
2018-02-19T09:04:17.594Z,1000.28
2018-02-19T09:05:17.621Z,1000.25
2018-02-19T09:06:17.649Z,1000.26
2018-02-19T09:07:17.677Z,1000.21
2018-02-19T09:08:17.703Z,1000.23
2018-02-19T09:09:17.730Z,1000.30
2018-02-19T09:10:17.756Z,1000.25
2018-02-19T09:11:17.785Z,1000.26
2018-02-19T09:12:17.812Z,1000.28
2018-02-19T09:13:17.840Z,1000.29
2018-02-19T09:14:17.866Z,1000.28
2018-02-19T09:15:17.898Z,1000.27
2018-02-19T09:16:17.919Z,1000.25
2018-02-19T09:17:17.949Z,1000.21
2018-02-19T09:18:17.976Z,1000.24
2018-02-19T09:19:18.003Z,1000.21
2018-02-19T09:20:18.028Z,1000.20
2018-02-19T09:21:18.057Z,1000.22
2018-02-19T09:22:18.084Z,1000.18
2018-02-19T09:23:18.112Z,1000.18
2018-02-19T09:24:18.137Z,1000.27
2018-02-19T09:25:18.166Z,1000.25
2018-02-19T09:26:18.193Z,1000.28
2018-02-19T09:27:18.220Z,1000.26
2018-02-19T09:28:18.248Z,1000.25
2018-02-19T09:29:18.274Z,1000.22
2018-02-19T09:30:18.302Z,1000.27
2018-02-19T09:31:18.330Z,1000.32
2018-02-19T09:32:18.356Z,1000.30
2018-02-19T09:33:18.385Z,1000.33
2018-02-19T09:34:18.411Z,1000.33
2018-02-19T09:35:18.440Z,1000.31
2018-02-19T09:36:18.465Z,1000.34
2018-02-19T09:37:18.491Z,1000.34
2018-02-19T09:38:18.520Z,1000.30
2018-02-19T09:39:18.547Z,1000.36
2018-02-19T09:40:18.574Z,1000.33
2018-02-19T09:41:18.601Z,1000.33
2018-02-19T09:42:18.629Z,1000.29
2018-02-19T09:43:18.658Z,1000.23
2018-02-19T09:44:18.692Z,1000.31
2018-02-19T09:45:18.712Z,1000.28
2018-02-19T09:46:18.739Z,1000.22
2018-02-19T09:47:18.768Z,1000.22
2018-02-19T09:48:18.793Z,1000.24
2018-02-19T09:49:18.824Z,1000.26
2018-02-19T09:50:18.848Z,1000.27
2018-02-19T09:51:18.877Z,1000.26
2018-02-19T09:52:18.903Z,1000.25
2018-02-19T09:53:18.931Z,1000.21
2018-02-19T09:54:18.982Z,1000.21
2018-02-19T09:55:18.998Z,1000.20
2018-02-19T09:56:19.013Z,1000.20
2018-02-19T09:57:19.041Z,1000.22
2018-02-19T09:58:19.098Z,1000.16
2018-02-19T09:59:19.097Z,1000.17
2018-02-19T10:00:19.124Z,1000.15
2018-02-19T10:01:19.152Z,1000.09
2018-02-19T10:02:19.180Z,1000.13
2018-02-19T10:03:19.234Z,1000.11
2018-02-19T10:04:19.234Z,1000.13
2018-02-19T10:05:19.263Z,1000.13
2018-02-19T10:06:19.294Z,1000.13
2018-02-19T10:07:19.319Z,1000.14
2018-02-19T10:08:19.352Z,1000.10
2018-02-19T10:09:19.374Z,1000.05
2018-02-19T10:10:19.748Z,1000.02
2018-02-19T10:11:19.430Z,1000.03
2018-02-19T10:12:19.458Z,1000.08
2018-02-19T10:13:19.487Z,999.99
2018-02-19T10:14:19.513Z,1000.03
2018-02-19T10:15:19.542Z,1000.02
2018-02-19T10:16:19.569Z,1000.04
2018-02-19T10:17:19.597Z,1000.02
2018-02-19T10:18:19.658Z,1000.02
2018-02-19T10:19:19.653Z,999.98
2018-02-19T10:20:19.681Z,999.93
2018-02-19T10:21:19.709Z,999.99
2018-02-19T10:22:19.777Z,999.95
2018-02-19T10:23:19.764Z,999.98
2018-02-19T10:24:19.810Z,999.94
2018-02-19T10:25:19.820Z,999.96
2018-02-19T10:26:19.909Z,999.99
2018-02-19T10:27:19.877Z,999.95
2018-02-19T10:28:19.905Z,999.92
2018-02-19T10:29:19.933Z,999.90
2018-02-19T10:30:20.011Z,999.90
2018-02-19T10:31:19.991Z,999.85
2018-02-19T10:32:20.019Z,999.86
2018-02-19T10:33:20.048Z,999.81
2018-02-19T10:34:20.103Z,999.83
2018-02-19T10:35:20.103Z,999.86
2018-02-19T10:36:20.134Z,999.84
2018-02-19T10:37:20.169Z,999.87
2018-02-19T10:38:20.188Z,999.86
2018-02-19T10:39:20.217Z,999.86
2018-02-19T10:40:20.245Z,999.82
2018-02-19T10:41:20.273Z,999.85
2018-02-19T10:42:20.302Z,999.86
2018-02-19T10:43:20.330Z,999.80
2018-02-19T10:44:20.358Z,999.83
2018-02-19T10:45:20.387Z,999.82
2018-02-19T10:46:20.415Z,999.82
2018-02-19T10:47:20.444Z,999.82
2018-02-19T10:48:20.470Z,999.80
2018-02-19T10:49:20.500Z,999.81
2018-02-19T10:50:20.529Z,999.81
2018-02-19T10:51:20.558Z,999.80
2018-02-19T10:52:20.586Z,999.81
2018-02-19T10:53:20.615Z,999.79
2018-02-19T10:54:20.652Z,999.75
2018-02-19T10:55:20.673Z,999.69
2018-02-19T10:56:20.700Z,999.78
2018-02-19T10:57:20.729Z,999.73
2018-02-19T10:58:20.757Z,999.73
2018-02-19T10:59:20.787Z,999.75
2018-02-19T11:00:20.829Z,999.74
2018-02-19T11:01:20.847Z,999.75
2018-02-19T11:02:20.872Z,999.76
2018-02-19T11:03:20.900Z,999.76
2018-02-19T11:04:20.927Z,999.77
2018-02-19T11:05:20.957Z,999.74
2018-02-19T11:06:20.985Z,999.74
2018-02-19T11:07:21.015Z,999.71
2018-02-19T11:08:21.042Z,999.71
2018-02-19T11:09:21.070Z,999.72
2018-02-19T11:10:21.100Z,999.72
2018-02-19T11:11:21.128Z,999.72
2018-02-19T11:12:21.156Z,999.69
2018-02-19T11:13:21.223Z,999.66
2018-02-19T11:14:21.212Z,999.63
2018-02-19T11:15:21.242Z,999.61
2018-02-19T11:16:21.270Z,999.62
2018-02-19T11:17:21.298Z,999.59
2018-02-19T11:18:21.328Z,999.60
2018-02-19T11:19:21.355Z,999.57
2018-02-19T11:20:21.383Z,999.57
2018-02-19T11:21:21.445Z,999.56
2018-02-19T11:22:21.441Z,999.54
2018-02-19T11:23:21.469Z,999.56
2018-02-19T11:24:21.537Z,999.57
2018-02-19T11:25:21.524Z,999.58
2018-02-19T11:26:21.558Z,999.57
2018-02-19T11:27:21.583Z,999.57
2018-02-19T11:28:21.613Z,999.55
2018-02-19T11:29:21.677Z,999.52
2018-02-19T11:30:21.698Z,999.51
2018-02-19T11:31:21.696Z,999.55
2018-02-19T11:32:21.724Z,999.50
2018-02-19T11:33:21.752Z,999.49
2018-02-19T11:34:21.787Z,999.47
2018-02-19T11:35:21.828Z,999.46
2018-02-19T11:36:21.836Z,999.41
2018-02-19T11:37:21.865Z,999.40
2018-02-19T11:38:21.894Z,999.39
2018-02-19T11:39:21.922Z,999.45
2018-02-19T11:40:21.951Z,999.44
2018-02-19T11:41:21.983Z,999.46
2018-02-19T11:42:22.009Z,999.44
2018-02-19T11:43:22.037Z,999.43
2018-02-19T11:44:22.066Z,999.44
2018-02-19T11:45:22.094Z,999.42
2018-02-19T11:46:22.127Z,999.42
2018-02-19T11:47:22.150Z,999.37
2018-02-19T11:48:22.181Z,999.46
2018-02-19T11:49:22.207Z,999.43
2018-02-19T11:50:22.236Z,999.34
2018-02-19T11:51:22.264Z,999.39
2018-02-19T11:52:22.291Z,999.38
2018-02-19T11:53:22.321Z,999.35
2018-02-19T11:54:22.350Z,999.32
2018-02-19T11:55:22.378Z,999.28
2018-02-19T11:56:22.406Z,999.31
2018-02-19T11:57:22.434Z,999.32
2018-02-19T11:58:22.462Z,999.34
2018-02-19T11:59:22.491Z,999.30
2018-02-19T12:00:22.518Z,999.31
2018-02-19T12:01:22.546Z,999.25
2018-02-19T12:02:22.579Z,999.25
2018-02-19T12:03:22.606Z,999.26
2018-02-19T12:04:22.631Z,999.24
2018-02-19T12:05:22.660Z,999.25
2018-02-19T12:06:22.689Z,999.22
2018-02-19T12:07:22.716Z,999.27
2018-02-19T12:08:22.746Z,999.25
2018-02-19T12:09:22.772Z,999.29